Klamath Falls Airport
KLMT : now visible

Airfield :











YOU CAN JOIN US ON...

 
LOGIN :

Register | Disclaimer

   EN    FR    IT 

 









Legend :    VFR   Marginal VFR   IFR   Intensive IFR   Very Intensive IFR
Visi :
Ceiling :
>= 8 km
>= 3000ft
5 to 8 km
1000 to 3000 ft
1500m to 5 km
500 to 1000 ft
800 to 1500m
200 to 500 ft
< 800m
< 200 ft
Symbols :   Thunderstorms  Fog  Heavy snow  Heavy precipitations  Wind > 20 kt






- Airport Elevation : 4095 ft
- IATA code : LMT


KLMT - Klamath Falls

CURRENT METAR :
  • 060153Z COR 19012KT 10SM SCT030 05/M02 A2954 RMK AO2 SLP001 T00501022

EXPIRED METARs :
  • 060053Z 18015KT 10SM CLR 06/M02 A2952 RMK AO2 RAE19 SLP993 P0001 T00611017
  • 052353Z 14015G20KT 8SM RA SCT055 BKN075 06/00 A2951 RMK AO2 RAB39 SLP989 P0001 60004 T00560000 10089 20039 56007

TAF KLMT
Valid from the 06 at 00:00 until the 07 at 00:00 UTC


052330Z 0600/0624 15009G18KT P6SM SCT030 BKN040 OVC060
FM060200 15006KT P6SM VCSH SCT025 OVC050
FM060900 VRB02KT 5SM BR SCT005 BKN020
FM061500 VRB02KT P6SM FEW006 SCT020 BKN150



MET'MAP, your aeronautical weather chart ! - Copyright ORBIFLY December 2007 - Disclaimer

ORBIFLY MET'MAP TEAM :

Programming & Development : Alexandra Zaïnal
Concept & original design : Baudouin d'Aumeries
Assistance for programming : Marc-Olivier Méhu
Technical & hardware support : Manuel Goepfert

Contact : metmap@orbifly.com




SOURCES & CREDITS :

   NOAA       Earth
Advisory